Aérodrome :
LOGIN :

S'inscrire | Disclaimer

   EN    FR    IT 

 










Légende :    VFR   VFR Marginal   IFR   IFR Intensif   IFR Très Intensif
Visi : 
Plafond : 
>= 8 km
>= 3000ft
5 à 8 km
1000 à 3000 ft
1500m à 5 km
500 à 1000 ft
800 à 1500m
200 à 500 ft
< 800m
< 200 ft
Symboles :   Orages  Brouillard  Fortes neiges  Fortes précipitations  Vent > 20 kt
SIGMETs :   Divers  Orages  Givrage  Turbulence  Onde Orograph.  Cendres Volcan.







- Altitude de l'aérodrome : 1416 ft
- Code IATA : ZRH


LSZH - Zurich

DERNIER METAR :
  • 240920Z VRB02KT 9999 FEW043 SCT048 19/11 Q1024 NOSIG

METARs EXPIRÉS :
  • 240850Z VRB04KT 9999 FEW043 SCT048 18/11 Q1025 NOSIG
  • 240820Z 36005KT 9999 FEW039 SCT044 18/11 Q1025 NOSIG
  • 240750Z 36006KT 330V030 9999 FEW030 BKN036 17/10 Q1025 NOSIG
  • 240720Z 36005KT 330V040 9999 FEW026 BKN030 17/10 Q1025 NOSIG
  • 240650Z 01005KT 330V070 9999 FEW027 SCT030 17/10 Q1025 NOSIG

TAF TAF LSZH
Valide du 24 à 09h jusqu'au 25 à 15h UTC


240825Z 2409/2515 36005KT 9999 FEW030 BKN035 TX23/2414Z TN11/2504Z TX23/2514Z
TEMPO 2409/2417 SCT060
PROB40
TEMPO 2415/2420 05010KT
BECMG 2507/2510 05010KT
ATIS : +41 43 816 2295 (DEP) +41 43 816 2294 (ARR)
Pas de NOTAMs connus pour ce terrain.



MET'MAP, la Météo Aéronautique d'un coup d'oeil ! - Copyright ORBIFLY Décembre 2007 - Disclaimer

ORBIFLY MET'MAP TEAM :

Programmation & Développement : Alexandra Zaïnal
Conception & Développement : Baudouin d'Aumeries
Co-Programmation & Développement : Marc-Olivier Méhu
Soutien technique & logistique : Manuel Goepfert

Contact : metmap@orbifly.com




SOURCES & CREDITS :

   NOAA